Lebanon, VA

6:12 AM EST on December 26, 2014 (GMT -0500)
Virginia Highlands | Change Station
CLOSE
Current Station
Airport
Location: Abingdon,
Elevation: 2070 ft
Nearby Weather Stations

Elev 2070 ft 36.69 °N, 82.03 °W | Updated 17 minutes ago

Partly Cloudy
Partly Cloudy
29 °F
Feels Like 24 °F
N
5
Wind Variable Wind from East

Today
High -- | Low -- °F
--% Chance of Precip.
Yesterday
High -- | Low -- °F
Precip. -- in
7:39 AM 5:18 PM
Waxing Crescent, 25% visible
Pressure 30.27 in
Visibility 10.0 miles
Clouds Clear
Windchill 24 °F
Dew Point 27 °F
Humidity 94%
Rainfall 0.00 in
Snow Depth Not available.
UV 0 out of 12
Pollen .90 out of 12
Air Quality Not available.
Flu Activity Not available.
METAR KVJI 261055Z AUTO 09004KT 10SM CLR M02/M03 A3027 RMK AO2 T10191027

More Conditions Fewer Conditions

Pressure 30.27 in
Visibility 10.0 miles
Clouds Clear
Windchill 24 °F
Dew Point 27 °F
Humidity 94%
Rainfall 0.00 in
Snow Depth Not available.
UV 0 out of 12
Pollen .90 out of 12
Air Quality Not available.
Flu Activity Not available.
METAR KVJI 261055Z AUTO 09004KT 10SM CLR M02/M03 A3027 RMK AO2 T10191027

More Conditions Fewer Conditions

10-Day Weather Forecast

Almanac

Astronomy

Dec. 26, 2014 Rise Set
Actual Time
Civil Twilight
Nautical Twilight
Astronomical Twilight
Moon
Length of Visible Light
Length of Day
Tomorrow will be .
, % of the Moon is Illuminated

Today's Extremes

State Highs State Lows

Community

WunderPhotos

Upload Photos

1,780,580 photos uploaded!

WunderBlogs® & News

Nearby

Air Quality

  Air Quality AQ Index Pollutant
Not available.

Snow Depth

Station Depth Elevation

Earthquake Activity

City Distance Mag. Time & Date
Minimum magnitude displayed is 2.5.

Coastal Water Temperatures

Place Temperature

Nearby Weather Stations